Terminal Aerodrome Forecast
Issued by NWS Duluth, MN

Home | Current Version | Previous Version | Text Only | Print | Product List | Glossary On
Versions: 1 2 3 4 5 6 7 8 9 10 11 12 13 14 15 16 17
000
FTUS43 KDLH 240900 AAA
TAFINL
TAF AMD
KINL 240909Z 2409/2506 29012G20KT 5SM -SN BR SCT010 BKN025 OVC060
      TEMPO 2409/2412 2SM -SN BKN020
     FM241200 32013G25KT P6SM VCSH SCT025 BKN060
     FM241600 31015G25KT P6SM VCSH SCT025 BKN050
     FM242300 30011KT P6SM SCT025 BKN080
     FM250200 30009KT P6SM BKN080=

USA.gov is the U.S. government's official web portal to all federal, state and local government web resources and services.